Time;durP1;ratioP1;P1;durP2;ratioP2;P2;SDS_P1;SDS_P2;PMS_P1;PMS_P2;Temp;Humidity;BMP_temperature;BMP_pressure;BME280_temperature;BME280_humidity;BME280_pressure;Samples;Min_cycle;Max_cycle;Signal;HPM_P1;HPM_P2
2021/05/28 00:01:52;;;;;;;10.50;3.30;;;;;;;12.45;64.24;98903.97;5134995;27;20066;-93
2021/05/28 00:04:18;;;;;;;9.35;3.58;;;;;;;12.48;64.75;98903.84;5134978;27;20031;-92
2021/05/28 00:06:44;;;;;;;6.93;2.95;;;;;;;12.42;64.27;98896.03;5135823;27;20077;-93
2021/05/28 00:09:11;;;;;;;10.95;3.20;;;;;;;12.39;64.36;98894.34;5135030;27;20039;-91
2021/05/28 00:11:38;;;;;;;11.05;3.38;;;;;;;12.45;64.04;98893.28;5134842;27;20526;-91
2021/05/28 00:14:04;;;;;;;9.95;3.38;;;;;;;12.38;64.62;98897.91;5134667;27;20072;-92
2021/05/28 00:16:31;;;;;;;7.05;3.30;;;;;;;12.47;64.77;98902.06;5134742;27;20039;-92
2021/05/28 00:18:57;;;;;;;9.32;3.30;;;;;;;12.37;64.51;98887.31;5138630;27;20063;-91
2021/05/28 00:21:23;;;;;;;7.50;3.47;;;;;;;12.10;65.78;98882.81;5138719;27;20067;-91
2021/05/28 00:23:49;;;;;;;9.18;3.70;;;;;;;12.15;65.31;98897.81;5136821;27;20035;-91
2021/05/28 00:26:16;;;;;;;11.68;3.58;;;;;;;12.24;65.49;98925.03;5136737;27;20045;-91
2021/05/28 00:28:47;;;;;;;9.38;3.17;;;;;;;12.13;65.50;98914.69;5132991;27;20096;-91
2021/05/28 00:31:13;;;;;;;8.32;3.05;;;;;;;12.16;65.12;98921.72;5132893;27;20039;-90
2021/05/28 00:33:39;;;;;;;7.18;3.42;;;;;;;12.19;65.09;98921.66;5135375;27;20034;-91
2021/05/28 00:36:04;;;;;;;11.18;3.67;;;;;;;12.00;65.18;98908.00;5136727;27;20047;-91
2021/05/28 00:38:30;;;;;;;6.63;3.22;;;;;;;11.98;65.49;98912.50;5134318;27;20035;-93
2021/05/28 00:40:56;;;;;;;7.75;3.30;;;;;;;12.09;64.99;98917.50;5137031;27;20043;-93
2021/05/28 00:43:23;;;;;;;6.65;3.28;;;;;;;12.09;65.20;98929.03;5133571;28;20039;-90
2021/05/28 00:45:49;;;;;;;7.53;2.90;;;;;;;12.02;64.78;98911.50;5131221;28;20046;-91
2021/05/28 00:48:15;;;;;;;10.80;3.13;;;;;;;11.98;64.78;98911.66;5119989;28;20035;-92
2021/05/28 00:50:41;;;;;;;11.55;3.10;;;;;;;11.99;65.18;98932.03;5121434;28;20059;-93
2021/05/28 00:53:07;;;;;;;9.60;3.30;;;;;;;11.88;64.94;98893.28;5116782;28;20059;-92
2021/05/28 00:55:36;;;;;;;7.53;2.92;;;;;;;11.95;65.33;98907.28;5120199;28;20032;-90
2021/05/28 00:58:02;;;;;;;;;;;;;;;12.12;65.02;98926.31;5118408;28;20040;-91
2021/05/28 01:00:29;;;;;;;9.32;3.03;;;;;;;12.03;65.48;98920.38;5117301;28;19924;-91
2021/05/28 01:02:55;;;;;;;6.60;3.00;;;;;;;12.10;65.75;98929.91;5116673;28;20066;-92
2021/05/28 01:05:21;;;;;;;9.20;3.10;;;;;;;12.02;66.43;98932.81;5127628;27;20499;-90
2021/05/28 01:07:48;;;;;;;8.57;3.58;;;;;;;11.99;66.15;98932.03;5125177;27;20505;-92
2021/05/28 01:10:14;;;;;;;6.72;3.30;;;;;;;11.82;66.68;98911.19;5125258;27;20070;-91
2021/05/28 01:12:40;;;;;;;8.02;3.33;;;;;;;11.87;66.81;98918.13;5126486;27;20108;-93
2021/05/28 01:15:10;;;;;;;8.85;3.38;;;;;;;11.86;66.83;98937.72;5126524;27;20058;-92
2021/05/28 01:17:37;;;;;;;9.32;3.50;;;;;;;11.61;67.23;98918.03;5116095;27;20059;-90
2021/05/28 01:20:03;;;;;;;6.47;3.03;;;;;;;11.73;67.26;98936.31;5127791;27;20381;-92
2021/05/28 01:22:30;;;;;;;6.70;3.05;;;;;;;11.59;68.57;98928.72;5125740;27;20028;-90
2021/05/28 01:25:00;;;;;;;10.20;3.40;;;;;;;11.54;69.17;98919.09;5122693;27;20088;-91
2021/05/28 01:27:27;;;;;;;6.75;3.00;;;;;;;11.41;67.48;98894.66;5122843;27;20050;-91
2021/05/28 01:29:52;;;;;;;8.55;3.05;;;;;;;11.72;66.52;98932.78;5130184;27;20078;-91
2021/05/28 01:32:18;;;;;;;8.27;3.15;;;;;;;11.70;65.69;98904.44;5119720;27;20455;-92
2021/05/28 01:34:44;;;;;;;7.55;3.20;;;;;;;11.93;64.88;98927.78;5122176;27;20703;-92
2021/05/28 01:37:10;;;;;;;9.13;3.28;;;;;;;12.12;64.03;98923.63;5124560;27;20032;-93
2021/05/28 01:39:44;;;;;;;6.93;3.15;;;;;;;12.20;63.91;98910.06;5126972;27;20038;-94
2021/05/28 01:42:10;;;;;;;5.82;3.10;;;;;;;12.31;63.50;98928.38;5132451;27;20575;-91
2021/05/28 01:44:36;;;;;;;8.10;3.20;;;;;;;12.18;63.69;98924.34;5119814;27;20150;-92
2021/05/28 01:47:01;;;;;;;8.88;3.53;;;;;;;11.88;64.80;98903.94;5123024;27;20043;-92
2021/05/28 01:49:27;;;;;;;8.95;3.47;;;;;;;11.88;65.23;98917.25;5118748;28;20040;-92
2021/05/28 01:51:53;;;;;;;7.38;3.10;;;;;;;11.80;65.79;98927.25;5119436;27;20493;-92
2021/05/28 01:54:19;;;;;;;10.02;3.50;;;;;;;11.90;66.21;98947.38;5118322;27;20122;-91
2021/05/28 01:56:47;;;;;;;8.27;3.50;;;;;;;11.68;66.81;98925.78;5120025;27;20127;-92
2021/05/28 01:59:18;;;;;;;11.35;3.63;;;;;;;11.75;67.19;98945.13;5123870;27;20039;-92
2021/05/28 02:01:44;;;;;;;7.47;3.42;;;;;;;11.57;67.17;98930.56;5115897;28;20044;-92
2021/05/28 02:04:10;;;;;;;7.43;3.00;;;;;;;11.46;67.64;98937.97;5123986;27;20404;-91
2021/05/28 02:06:36;;;;;;;8.57;3.40;;;;;;;11.62;66.58;98938.41;5117311;28;20035;-90
2021/05/28 02:09:02;;;;;;;8.55;2.90;;;;;;;11.70;67.00;98939.94;5118411;27;20381;-94
2021/05/28 02:11:28;;;;;;;6.60;3.40;;;;;;;11.61;68.05;98944.66;5120922;27;20512;-95
2021/05/28 02:13:55;;;;;;;11.70;3.47;;;;;;;11.56;68.05;98938.56;5118403;27;20050;-92
2021/05/28 02:16:21;;;;;;;9.32;3.60;;;;;;;11.45;68.41;98922.91;5119102;27;20767;-91
2021/05/28 02:18:46;;;;;;;8.68;3.47;;;;;;;11.49;68.79;98944.09;5119270;27;20043;-92
2021/05/28 02:21:12;;;;;;;7.90;3.88;;;;;;;11.35;68.70;98924.09;5117455;28;20036;-93
2021/05/28 02:23:38;;;;;;;9.60;3.63;;;;;;;11.20;68.74;98915.59;5120876;27;20028;-91
2021/05/28 02:26:04;;;;;;;9.73;3.35;;;;;;;11.26;68.90;98925.22;5118760;27;20046;-91
2021/05/28 02:28:30;;;;;;;9.85;3.45;;;;;;;11.23;69.44;98938.59;5120616;27;20051;-92
2021/05/28 02:30:56;;;;;;;6.57;3.90;;;;;;;11.04;69.69;98916.94;5117846;27;20467;-92
2021/05/28 02:33:22;;;;;;;7.93;3.70;;;;;;;10.99;70.42;98934.81;5120203;27;20036;-92
2021/05/28 02:35:48;;;;;;;10.63;3.55;;;;;;;10.99;70.63;98954.31;5116070;28;20046;-91
2021/05/28 02:38:14;;;;;;;10.95;3.65;;;;;;;10.89;70.93;98953.69;5119339;27;20042;-92
2021/05/28 02:40:40;;;;;;;10.18;3.47;;;;;;;10.84;71.46;98950.28;5121821;27;20076;-92
2021/05/28 02:43:06;;;;;;;8.45;3.42;;;;;;;10.91;71.93;98966.94;5121875;27;20051;-92
2021/05/28 02:45:31;;;;;;;9.95;3.40;;;;;;;10.69;72.27;98932.91;5122995;27;20476;-92
2021/05/28 02:47:59;;;;;;;6.88;3.53;;;;;;;10.78;71.25;98938.88;5128490;27;20095;-90
2021/05/28 02:50:26;;;;;;;7.95;3.55;;;;;;;10.75;72.33;98960.25;5132674;27;20070;-92
2021/05/28 02:52:51;;;;;;;11.05;3.90;;;;;;;10.66;71.89;98961.34;5124855;27;20031;-91
2021/05/28 02:55:17;;;;;;;8.38;4.00;;;;;;;10.69;71.78;98971.91;5129665;27;20044;-92
2021/05/28 02:57:43;;;;;;;9.25;3.78;;;;;;;10.47;72.65;98958.25;5136026;27;20039;-92
2021/05/28 03:00:10;;;;;;;8.70;3.67;;;;;;;10.36;73.06;98953.19;5129173;27;20106;-91
2021/05/28 03:02:36;;;;;;;7.28;3.60;;;;;;;10.32;72.81;98943.53;5128606;27;20035;-93
2021/05/28 03:05:03;;;;;;;8.68;3.63;;;;;;;10.69;71.99;98974.56;5127571;27;20100;-92
2021/05/28 03:07:29;;;;;;;9.48;3.72;;;;;;;10.63;71.78;98958.78;5130119;27;20035;-90
2021/05/28 03:09:57;;;;;;;8.10;3.30;;;;;;;10.86;70.64;98974.16;5121115;27;20039;-90
2021/05/28 03:12:22;;;;;;;9.80;3.70;;;;;;;10.75;70.97;98982.41;5130038;27;20070;-92
2021/05/28 03:14:48;;;;;;;8.45;3.70;;;;;;;10.50;71.58;98957.34;5129481;27;20054;-92
2021/05/28 03:17:14;;;;;;;8.15;3.40;;;;;;;10.41;72.14;98963.72;5119199;27;20064;-90
2021/05/28 03:19:42;;;;;;;6.93;3.15;;;;;;;10.45;72.66;98971.59;5127485;27;20122;-91
2021/05/28 03:25:12;;;;;;;9.90;3.80;;;;;;;10.35;73.29;98993.97;5111514;27;20373;-92
2021/05/28 03:27:39;;;;;;;10.77;3.80;;;;;;;10.40;72.96;98997.41;5111632;28;20075;-93
2021/05/28 03:30:07;;;;;;;7.65;3.25;;;;;;;10.45;72.60;98992.88;5110505;28;20435;-93
2021/05/28 03:32:32;;;;;;;9.65;3.70;;;;;;;10.44;72.49;98987.59;5111680;28;20043;-93
2021/05/28 03:34:58;;;;;;;9.13;3.90;;;;;;;10.52;71.54;98967.00;5113242;28;20044;-93
2021/05/28 03:37:25;;;;;;;11.02;3.95;;;;;;;10.69;71.35;98991.41;5114573;28;20420;-92
2021/05/28 03:39:50;;;;;;;8.32;4.25;;;;;;;10.97;70.51;99011.13;5115116;28;20051;-92
2021/05/28 03:42:18;;;;;;;10.05;3.65;;;;;;;10.94;69.93;98992.59;5114012;28;20494;-91
2021/05/28 03:44:44;;;;;;;6.07;3.40;;;;;;;11.04;70.32;99004.78;5114502;28;20101;-91
2021/05/28 03:47:10;;;;;;;11.68;3.45;;;;;;;10.82;70.67;99007.97;5113806;28;20047;-92
2021/05/28 03:49:37;;;;;;;7.85;3.70;;;;;;;10.67;71.56;98995.91;5114358;28;20103;-92
2021/05/28 03:52:03;;;;;;;8.13;3.83;;;;;;;10.49;72.23;98998.97;5114695;28;20039;-93
2021/05/28 03:54:29;;;;;;;9.25;3.47;;;;;;;10.27;72.87;98979.94;5115016;28;20039;-93
2021/05/28 03:56:55;;;;;;;8.60;3.80;;;;;;;10.37;72.32;98962.94;5113964;28;20477;-93
2021/05/28 03:59:22;;;;;;;7.45;3.88;;;;;;;10.55;72.41;98984.69;5115005;28;20392;-93
2021/05/28 04:01:48;;;;;;;10.13;3.58;;;;;;;10.65;71.96;98987.06;5111024;28;20453;-93
2021/05/28 04:04:14;;;;;;;9.30;3.88;;;;;;;10.80;71.26;98993.81;5110619;28;20123;-92
2021/05/28 04:06:40;;;;;;;9.55;4.00;;;;;;;10.94;71.31;99000.59;5110253;28;20054;-91
2021/05/28 04:09:06;;;;;;;11.38;4.00;;;;;;;10.92;71.40;98989.09;5110346;28;20081;-93
2021/05/28 04:11:32;;;;;;;9.55;3.65;;;;;;;10.87;71.65;98982.09;5110768;28;20439;-92
2021/05/28 04:13:57;;;;;;;8.15;3.55;;;;;;;10.78;71.83;98987.66;5110584;28;20036;-93
2021/05/28 04:16:24;;;;;;;8.45;3.88;;;;;;;10.82;72.13;98992.00;5109586;28;20404;-91
2021/05/28 04:18:50;;;;;;;7.22;3.72;;;;;;;10.86;71.97;98980.38;5110646;28;20123;-92
2021/05/28 04:21:16;;;;;;;10.10;3.45;;;;;;;10.89;71.65;98993.59;5110401;28;20090;-92
2021/05/28 04:23:42;;;;;;;10.63;3.72;;;;;;;10.90;72.28;99005.09;5109864;28;20127;-92
2021/05/28 04:26:07;;;;;;;10.07;3.72;;;;;;;10.90;71.83;99005.97;5110003;28;20039;-92
2021/05/28 04:28:33;;;;;;;11.55;3.58;;;;;;;10.96;72.44;99030.69;5109941;28;20061;-93
2021/05/28 04:30:59;;;;;;;13.50;3.90;;;;;;;10.87;72.32;99021.16;5108975;28;20036;-90
2021/05/28 04:33:26;;;;;;;8.55;3.85;;;;;;;10.92;72.88;99031.66;5115703;28;20146;-91
2021/05/28 04:35:52;;;;;;;7.80;3.78;;;;;;;11.08;72.56;99055.22;5099475;28;20532;-93
2021/05/28 04:38:18;;;;;;;8.38;3.60;;;;;;;11.06;72.01;99038.41;5096628;28;20028;-91
2021/05/28 04:40:44;;;;;;;7.95;3.50;;;;;;;11.17;71.68;99051.44;5096317;28;20288;-92
2021/05/28 04:43:10;;;;;;;6.00;3.55;;;;;;;11.13;71.82;99030.28;5096411;28;20068;-93
2021/05/28 04:45:36;;;;;;;9.50;3.58;;;;;;;11.17;71.88;99031.91;5095537;28;20036;-92
2021/05/28 04:48:03;;;;;;;12.88;4.45;;;;;;;11.05;71.41;99028.66;5096677;28;20040;-93
2021/05/28 04:53:28;;;;;;;23.30;8.32;;;;;;;11.33;71.37;99035.09;5155196;27;20355;-92
2021/05/28 04:55:54;;;;;;;23.00;6.88;;;;;;;11.61;69.45;99021.91;5113956;28;20434;-92
2021/05/28 04:58:20;;;;;;;16.38;5.35;;;;;;;11.59;70.44;99039.72;5130363;27;20051;-91
2021/05/28 05:00:46;;;;;;;15.55;4.90;;;;;;;11.87;69.40;99021.19;5113710;28;20042;-93
2021/05/28 05:03:12;;;;;;;6.35;3.45;;;;;;;12.94;65.01;99033.09;5111554;28;20043;-93
2021/05/28 05:05:37;;;;;;;8.68;3.78;;;;;;;13.77;62.39;99039.19;5110391;28;20046;-94
2021/05/28 05:08:04;;;;;;;8.82;3.60;;;;;;;14.34;59.97;99014.81;5115856;28;20090;-92
2021/05/28 05:10:30;;;;;;;10.63;3.42;;;;;;;14.93;58.35;99018.75;5115044;28;20131;-93
2021/05/28 05:12:56;;;;;;;7.43;3.60;;;;;;;15.40;57.50;99022.13;5113877;28;20098;-94
2021/05/28 05:15:22;;;;;;;7.40;3.50;;;;;;;15.66;56.05;99009.41;5113767;28;20036;-92
2021/05/28 05:17:48;;;;;;;7.45;3.50;;;;;;;16.07;55.04;99024.63;5110913;28;20481;-92
2021/05/28 05:20:14;;;;;;;8.48;3.50;;;;;;;16.19;54.54;99024.06;5112587;28;20534;-92
2021/05/28 05:22:40;;;;;;;8.95;3.58;;;;;;;16.08;54.35;99029.91;5113112;28;20046;-93
2021/05/28 05:25:07;;;;;;;8.30;3.40;;;;;;;16.06;54.37;99037.16;5115865;28;20035;-92
2021/05/28 05:27:34;;;;;;;9.35;3.88;;;;;;;16.18;54.19;99030.38;5111567;27;20043;-94
2021/05/28 05:30:00;;;;;;;11.00;4.35;;;;;;;16.51;53.20;99029.75;5111802;28;20082;-92
2021/05/28 05:32:26;;;;;;;8.45;3.38;;;;;;;16.62;52.41;99036.34;5111886;27;20067;-92
2021/05/28 05:34:54;;;;;;;10.70;3.30;;;;;;;16.86;51.89;99027.22;5113653;28;20068;-92
2021/05/28 05:37:20;;;;;;;9.50;3.10;;;;;;;17.07;51.50;99028.88;5113274;28;20042;-91
2021/05/28 05:39:46;;;;;;;10.18;3.60;;;;;;;17.50;49.99;99023.13;5111516;28;20044;-92
2021/05/28 05:42:11;;;;;;;15.85;5.85;;;;;;;17.27;50.54;99010.88;5114902;28;20122;-91
2021/05/28 05:44:38;;;;;;;11.00;4.88;;;;;;;17.55;49.68;99026.47;5112158;28;20070;-92
2021/05/28 05:47:04;;;;;;;15.52;5.97;;;;;;;17.58;50.27;99010.16;5112847;28;20032;-93
2021/05/28 05:49:30;;;;;;;8.98;3.65;;;;;;;17.69;49.79;99007.78;5114474;28;20045;-93
2021/05/28 05:51:56;;;;;;;9.00;3.47;;;;;;;17.06;51.66;99004.75;5116280;28;20040;-94
2021/05/28 05:54:21;;;;;;;9.52;3.33;;;;;;;16.44;54.14;99013.06;5116274;27;20039;-92
2021/05/28 05:56:47;;;;;;;10.40;3.70;;;;;;;16.37;54.67;99014.28;5112588;28;20059;-95
2021/05/28 05:59:13;;;;;;;7.93;3.55;;;;;;;16.97;52.71;99006.94;5115570;28;20060;-92
2021/05/28 06:01:40;;;;;;;9.15;3.78;;;;;;;17.32;52.51;99020.44;5119407;28;20492;-94
2021/05/28 06:04:06;;;;;;;10.77;3.75;;;;;;;17.57;51.78;99016.50;5105754;27;20044;-94
2021/05/28 06:06:32;;;;;;;7.40;3.25;;;;;;;17.91;51.40;99022.81;5097192;28;20047;-94
2021/05/28 06:08:58;;;;;;;11.90;3.97;;;;;;;18.15;50.30;99008.06;5096817;28;20036;-94
2021/05/28 06:11:24;;;;;;;10.82;3.42;;;;;;;18.19;50.54;99006.91;5098212;28;20048;-94
2021/05/28 06:13:50;;;;;;;8.25;3.42;;;;;;;18.02;51.73;98990.81;5098028;28;20044;-94
2021/05/28 06:16:22;;;;;;;10.32;3.45;;;;;;;18.35;50.52;98996.19;5099761;28;20398;-95
2021/05/28 06:18:48;;;;;;;9.65;4.03;;;;;;;18.54;50.20;98990.66;5100442;28;20625;-93
2021/05/28 06:21:17;;;;;;;10.30;3.75;;;;;;;18.37;49.63;98993.44;5105755;28;20040;-93
2021/05/28 06:23:43;;;;;;;8.32;3.40;;;;;;;18.37;49.12;98991.59;5119320;28;20066;-94
2021/05/28 06:26:09;;;;;;;8.82;3.55;;;;;;;18.22;49.62;98977.16;5107712;28;20424;-94
2021/05/28 06:28:35;;;;;;;10.45;3.55;;;;;;;18.00;50.79;98977.47;5121492;28;20445;-93
2021/05/28 06:31:01;;;;;;;10.95;3.55;;;;;;;17.59;52.35;98990.41;5115097;28;20090;-92
2021/05/28 06:33:27;;;;;;;9.00;3.40;;;;;;;18.11;51.06;99000.22;5100445;28;20040;-91
2021/05/28 06:35:54;;;;;;;9.70;3.45;;;;;;;18.29;50.50;98974.13;5099684;28;20039;-93
2021/05/28 06:38:21;;;;;;;6.85;3.53;;;;;;;18.09;51.30;98986.88;5102427;28;20402;-93
2021/05/28 06:40:49;;;;;;;10.43;3.55;;;;;;;18.04;51.25;98992.50;5101528;28;20067;-94
2021/05/28 06:43:15;;;;;;;8.93;3.30;;;;;;;18.12;50.88;98978.63;5099625;28;20044;-94
2021/05/28 06:45:41;;;;;;;10.88;3.25;;;;;;;17.66;52.41;98967.59;5099465;28;20082;-94
2021/05/28 06:48:10;;;;;;;8.07;3.35;;;;;;;18.23;51.52;98976.19;5101333;28;20551;-93
2021/05/28 06:50:40;;;;;;;8.80;3.38;;;;;;;18.40;50.43;98971.72;5097394;28;20090;-95
2021/05/28 06:53:07;;;;;;;8.27;3.15;;;;;;;18.45;50.41;98965.13;5098122;28;20044;-93
2021/05/28 06:55:33;;;;;;;7.53;3.10;;;;;;;18.43;50.46;98967.03;5097786;28;20047;-94
2021/05/28 06:57:59;;;;;;;6.70;3.22;;;;;;;18.38;49.65;98963.72;5102632;28;20047;-91
2021/05/28 07:00:25;;;;;;;10.07;3.30;;;;;;;18.77;49.41;98980.41;5102324;28;20103;-94
2021/05/28 07:02:53;;;;;;;8.80;3.45;;;;;;;18.12;50.18;98967.84;5111349;28;20060;-94
2021/05/28 07:05:20;;;;;;;7.57;2.92;;;;;;;18.55;49.81;98954.69;5112627;28;20092;-94
2021/05/28 07:07:46;;;;;;;6.15;2.88;;;;;;;18.75;48.56;98969.69;5102771;28;20036;-93
2021/05/28 07:10:13;;;;;;;8.20;3.15;;;;;;;18.67;49.13;98958.50;5105193;28;20042;-95
2021/05/28 07:12:39;;;;;;;7.82;3.40;;;;;;;18.91;49.12;98961.66;5105140;28;20375;-94
2021/05/28 07:15:07;;;;;;;7.28;3.28;;;;;;;18.76;48.33;98952.59;5103564;28;20051;-95
2021/05/28 07:17:34;;;;;;;6.13;3.25;;;;;;;19.19;48.45;98942.03;5104240;28;20044;-95
2021/05/28 07:20:00;;;;;;;6.45;3.00;;;;;;;19.49;46.87;98949.22;5105619;28;20076;-94
2021/05/28 07:22:26;;;;;;;7.68;3.05;;;;;;;19.09;48.40;98925.53;5105966;28;20036;-94
2021/05/28 07:24:52;;;;;;;5.95;3.05;;;;;;;19.12;47.83;98934.38;5103944;28;20550;-95
2021/05/28 07:27:19;;;;;;;12.27;3.05;;;;;;;19.78;46.34;98930.41;5116387;28;20043;-94
2021/05/28 07:29:46;;;;;;;7.45;2.95;;;;;;;19.99;46.91;98958.75;5114032;28;20044;-95
2021/05/28 07:32:12;;;;;;;5.90;2.95;;;;;;;19.65;47.47;98933.84;5102736;28;20083;-94
2021/05/28 07:34:39;;;;;;;6.70;3.45;;;;;;;19.77;47.11;98939.47;5104412;28;20040;-92
2021/05/28 07:37:05;;;;;;;7.43;3.20;;;;;;;19.50;48.30;98924.84;5112377;28;20047;-95
2021/05/28 07:39:32;;;;;;;8.30;3.85;;;;;;;20.25;46.15;98930.09;5103281;28;20068;-94
2021/05/28 07:41:58;;;;;;;9.52;3.50;;;;;;;20.58;44.28;98933.44;5101671;28;20500;-93
2021/05/28 07:44:26;;;;;;;11.07;5.05;;;;;;;20.79;44.40;98933.88;5101998;28;20044;-91
2021/05/28 07:46:52;;;;;;;6.82;3.50;;;;;;;20.69;44.45;98953.41;5099585;28;20452;-92
2021/05/28 07:49:18;;;;;;;7.07;3.35;;;;;;;20.41;46.04;98929.13;5100159;28;20043;-92
2021/05/28 07:51:44;;;;;;;7.97;3.45;;;;;;;20.83;44.54;98927.28;5110673;28;20501;-94
2021/05/28 07:54:10;;;;;;;8.55;3.35;;;;;;;20.61;45.39;98934.13;5098983;28;20067;-94
2021/05/28 07:56:37;;;;;;;5.80;3.50;;;;;;;20.74;46.62;98949.53;5111028;28;20054;-95
2021/05/28 07:59:04;;;;;;;11.07;3.10;;;;;;;20.96;43.60;98917.38;5105098;28;20040;-93
2021/05/28 08:01:32;;;;;;;9.55;3.30;;;;;;;20.82;44.63;98925.53;5105315;28;20075;-95
2021/05/28 08:03:58;;;;;;;6.67;3.80;;;;;;;20.84;43.48;98913.69;5102563;28;20052;-93
2021/05/28 08:06:25;;;;;;;7.85;3.78;;;;;;;20.97;44.30;98912.84;5103057;28;20048;-95
2021/05/28 08:08:52;;;;;;;6.53;2.90;;;;;;;21.03;44.38;98923.25;5099482;28;20048;-94
2021/05/28 08:11:19;;;;;;;9.30;3.38;;;;;;;20.96;43.83;98909.28;5097007;28;20090;-94
2021/05/28 08:13:48;;;;;;;10.85;3.40;;;;;;;21.51;41.71;98920.88;5103069;28;20035;-92
2021/05/28 08:16:15;;;;;;;6.45;3.25;;;;;;;21.79;42.17;98908.13;5097457;28;20258;-93
2021/05/28 08:18:42;;;;;;;5.68;3.05;;;;;;;21.73;40.86;98887.78;5107816;28;20362;-94
2021/05/28 08:21:11;;;;;;;8.60;3.22;;;;;;;21.53;41.24;98903.59;5101426;28;20040;-92
2021/05/28 08:23:38;;;;;;;5.63;3.00;;;;;;;21.83;40.75;98886.13;5103692;28;20067;-93
2021/05/28 08:26:09;;;;;;;7.13;3.22;;;;;;;22.11;40.78;98894.97;5104275;28;20043;-93
2021/05/28 08:28:35;;;;;;;10.15;3.65;;;;;;;21.36;41.50;98901.16;5105632;28;20044;-93
2021/05/28 08:31:04;;;;;;;6.90;4.30;;;;;;;21.31;40.98;98900.59;5102966;28;20040;-94
2021/05/28 08:33:30;;;;;;;4.93;3.28;;;;;;;21.71;41.51;98909.53;5107807;28;20032;-94
2021/05/28 08:35:57;;;;;;;7.68;4.03;;;;;;;21.53;41.58;98910.81;5103859;28;20516;-95
2021/05/28 08:38:23;;;;;;;7.47;3.30;;;;;;;21.97;41.43;98884.25;5108285;28;20040;-93
2021/05/28 08:40:52;;;;;;;9.00;3.08;;;;;;;22.31;39.89;98896.25;5114462;28;20055;-92
2021/05/28 08:43:18;;;;;;;8.50;3.38;;;;;;;22.60;39.98;98907.66;5111124;28;20493;-93
2021/05/28 08:45:48;;;;;;;7.97;3.10;;;;;;;22.75;38.98;98911.09;5107084;28;20047;-95
2021/05/28 08:48:17;;;;;;;9.77;3.30;;;;;;;23.19;38.91;98906.00;5101911;28;20036;-93
2021/05/28 08:50:45;;;;;;;6.43;2.70;;;;;;;22.18;38.16;98919.78;5099359;28;20071;-92
2021/05/28 08:53:13;;;;;;;4.20;2.53;;;;;;;22.53;37.69;98907.25;5104388;28;20056;-94
2021/05/28 08:55:43;;;;;;;4.25;3.00;;;;;;;23.05;36.74;98897.09;5100706;28;20036;-92
2021/05/28 09:16:29;;;;;;;5.13;2.55;;;;;;;23.24;33.75;98918.22;5146063;27;20383;-92
2021/05/28 09:18:56;;;;;;;5.43;2.58;;;;;;;23.86;33.92;98914.31;5115714;28;20040;-94
2021/05/28 09:21:24;;;;;;;4.18;2.60;;;;;;;23.43;33.09;98925.81;5113982;28;20075;-91
2021/05/28 09:23:50;;;;;;;5.17;2.67;;;;;;;23.31;32.68;98915.88;5113776;28;20131;-93
2021/05/28 09:26:17;;;;;;;4.22;2.38;;;;;;;23.55;32.90;98926.69;5116091;28;20059;-93
2021/05/28 09:28:45;;;;;;;4.75;2.75;;;;;;;23.73;31.25;98902.69;5115047;28;20516;-94
2021/05/28 09:31:14;;;;;;;5.35;2.60;;;;;;;24.03;31.50;98898.50;5113681;28;20467;-93
2021/05/28 09:33:44;;;;;;;5.57;2.50;;;;;;;24.52;31.52;98922.59;5011231;28;20048;-91
2021/05/28 09:36:19;;;;;;;8.38;2.90;;;;;;;23.93;30.91;98917.41;5053238;28;20463;-93
2021/05/28 09:39:04;;;;;;;3.22;2.40;;;;;;;24.06;30.86;98915.44;5051488;28;20120;-91
2021/05/28 09:41:49;;;;;;;3.85;2.60;;;;;;;24.19;30.98;98924.31;5052100;28;20429;-91
2021/05/28 09:44:18;;;;;;;4.65;2.60;;;;;;;24.23;31.25;98924.09;5053048;28;20037;-93
2021/05/28 09:47:02;;;;;;;9.65;2.60;;;;;;;23.84;30.61;98929.00;5050589;28;20064;-93
2021/05/28 09:49:31;;;;;;;4.78;2.50;;;;;;;24.41;30.32;98911.72;5050284;28;20054;-93
2021/05/28 09:52:05;;;;;;;5.45;3.03;;;;;;;24.96;29.93;98917.16;5052126;28;20052;-94
2021/05/28 09:54:31;;;;;;;4.93;2.70;;;;;;;24.61;30.51;98891.06;5053714;28;20144;-90
2021/05/28 09:56:58;;;;;;;7.03;3.22;;;;;;;24.57;31.45;98897.72;5051818;28;20494;-92
2021/05/28 09:59:23;;;;;;;4.07;2.50;;;;;;;24.82;31.14;98915.59;5055480;28;20494;-92
2021/05/28 10:01:59;;;;;;;5.93;2.55;;;;;;;24.53;30.75;98905.31;5052861;28;20053;-93
2021/05/28 10:04:25;;;;;;;6.68;3.22;;;;;;;24.59;31.18;98887.59;5054654;28;20045;-92
2021/05/28 10:06:53;;;;;;;8.82;3.17;;;;;;;24.90;30.80;98896.78;5055035;28;20045;-92
2021/05/28 10:09:19;;;;;;;5.53;2.70;;;;;;;25.18;31.69;98898.03;5052555;28;20047;-90
2021/05/28 10:11:45;;;;;;;4.30;2.70;;;;;;;25.18;30.10;98880.84;5054062;28;20049;-92
2021/05/28 10:14:11;;;;;;;6.25;2.72;;;;;;;25.60;29.00;98897.22;5054365;28;20038;-92
2021/05/28 10:16:37;;;;;;;6.63;2.85;;;;;;;25.46;28.26;98889.38;5042926;28;20517;-92
2021/05/28 10:19:04;;;;;;;5.75;2.75;;;;;;;24.77;30.41;98905.13;5038087;28;20519;-93
2021/05/28 10:21:30;;;;;;;7.32;3.05;;;;;;;24.95;29.98;98888.25;5038460;28;20041;-91
2021/05/28 10:23:59;;;;;;;5.53;2.72;;;;;;;24.99;30.23;98873.38;5039895;28;20120;-94
2021/05/28 10:26:27;;;;;;;4.65;2.50;;;;;;;25.39;28.61;98873.59;5038408;28;20041;-95
2021/05/28 10:28:54;;;;;;;4.13;2.80;;;;;;;25.37;27.95;98881.03;5038134;28;20479;-91
2021/05/28 10:31:20;;;;;;;4.18;2.70;;;;;;;25.11;28.39;98893.22;5037413;28;20720;-93
2021/05/28 10:33:53;;;;;;;4.45;2.80;;;;;;;24.97;29.59;98886.25;5040342;28;20513;-95
2021/05/28 10:36:41;;;;;;;3.47;2.33;;;;;;;24.63;28.40;98894.50;5037272;28;20049;-91
2021/05/28 10:39:08;;;;;;;;;;;;;;;24.84;28.23;98878.25;5038792;28;20068;-94
2021/05/28 10:41:37;;;;;;;4.88;2.50;;;;;;;24.79;27.78;98875.94;5040999;28;19925;-93
2021/05/28 10:44:06;;;;;;;5.20;2.88;;;;;;;24.48;28.66;98874.91;5039235;28;20072;-90
2021/05/28 10:46:32;;;;;;;4.65;3.00;;;;;;;24.30;29.09;98869.09;5037229;28;20037;-92
2021/05/28 10:49:09;;;;;;;4.72;2.58;;;;;;;25.05;28.89;98855.66;5040649;28;20048;-94
2021/05/28 10:52:04;;;;;;;4.85;2.70;;;;;;;25.54;27.64;98857.75;5040618;28;20037;-94
2021/05/28 10:54:35;;;;;;;6.18;2.83;;;;;;;24.92;27.53;98864.03;5039002;28;20065;-93
2021/05/28 10:57:21;;;;;;;4.95;2.40;;;;;;;25.15;27.25;98868.34;5040693;28;20064;-95
2021/05/28 10:59:49;;;;;;;4.10;2.72;;;;;;;25.24;26.85;98864.00;5038273;28;20087;-93
2021/05/28 11:02:16;;;;;;;5.97;2.60;;;;;;;25.05;27.42;98853.81;5039304;28;20407;-93
2021/05/28 11:04:57;;;;;;;6.43;2.97;;;;;;;24.07;28.77;98876.44;5039634;28;20064;-93
2021/05/28 11:07:32;;;;;;;6.00;2.92;;;;;;;24.56;28.73;98864.25;5039263;28;20052;-91
2021/05/28 11:10:15;;;;;;;5.50;2.45;;;;;;;25.20;27.08;98848.97;5039681;28;20077;-94
2021/05/28 11:12:41;;;;;;;4.60;2.50;;;;;;;25.40;27.21;98855.38;5040470;28;20074;-92
2021/05/28 11:15:10;;;;;;;3.70;2.40;;;;;;;25.35;26.89;98823.13;5040205;28;20053;-92
2021/05/28 11:17:51;;;;;;;5.50;2.67;;;;;;;25.52;25.78;98824.34;5040808;28;20108;-91
2021/05/28 11:20:27;;;;;;;7.20;2.88;;;;;;;25.09;26.32;98836.25;5038213;28;20045;-94
2021/05/28 11:22:53;;;;;;;9.18;2.85;;;;;;;25.18;24.63;98830.00;5036404;28;20046;-93
2021/05/28 11:25:22;;;;;;;4.10;2.67;;;;;;;25.16;25.62;98836.56;5039205;28;20495;-94
2021/05/28 11:28:00;;;;;;;5.93;2.63;;;;;;;25.43;25.44;98849.66;5039402;28;20050;-93
2021/05/28 11:30:38;;;;;;;5.40;2.70;;;;;;;25.56;25.27;98833.97;5038114;28;20033;-93
2021/05/28 11:33:04;;;;;;;4.50;2.72;;;;;;;25.14;26.69;98839.41;5038013;28;20060;-91
2021/05/28 11:35:37;;;;;;;4.97;2.78;;;;;;;24.96;25.82;98817.38;5037947;28;20049;-94
2021/05/28 11:38:05;;;;;;;5.25;2.45;;;;;;;25.12;26.28;98852.28;5036954;28;20045;-92
2021/05/28 11:40:39;;;;;;;9.30;2.80;;;;;;;25.11;25.94;98852.41;5037819;28;20065;-93
2021/05/28 11:43:07;;;;;;;5.05;2.40;;;;;;;25.09;25.99;98822.63;5038660;28;20048;-93
2021/05/28 11:45:34;;;;;;;5.35;2.35;;;;;;;25.23;25.44;98851.41;5038926;28;20041;-93
2021/05/28 11:48:00;;;;;;;6.70;2.65;;;;;;;25.12;25.58;98832.38;5038475;28;20045;-93
2021/05/28 11:50:39;;;;;;;5.25;2.50;;;;;;;25.04;25.19;98838.47;5038522;28;20061;-91
2021/05/28 11:53:07;;;;;;;4.35;2.35;;;;;;;25.46;24.13;98827.63;5037234;28;20052;-95
2021/05/28 11:55:46;;;;;;;4.72;2.30;;;;;;;25.70;24.91;98824.59;5036722;28;20033;-95
2021/05/28 11:58:14;;;;;;;3.83;2.50;;;;;;;25.75;24.24;98827.75;5031953;28;20041;-93